^^
Datos históricos de la estación: Murcia-Puente Tocinos
Diario Informe para Mayo 14, 2019 Unidades:  Ingés    Métrico   Ambas
Diario Semanal Mensual Anual
  Máxima: Mínima: Promedio:
Temperatura: 67.5 °F 52.3 °F 59.9 °F
Punto de rocio: 47.1 °F 42.6 °F 45 °F
Humedad: 72.6% 47% 58%
Velocidad viento: 10.2mph 0mph 5.9mph
Racha viento: 19mph - -
Viento- - SO
Presión: 30 in 30 in -
Precipitación: 0 in    
 
 
Tabla de datos para Mayo 14, 2019
Hora Temperatura Punto de rocio Presión Viento Velocidad viento Racha viento Humedad Intensidad lluvia(por hora) Nubes
00:04 62.8 °F 45.9 °F 30 in SO 6.9 mph 12 mph 54% 0 in
00:09 62.8 °F 45.9 °F 30 in SO 6.9 mph 8 mph 53.8% 0 in
00:14 63 °F 45.7 °F 30 in SO 5.3 mph 8.1 mph 53% 0 in
00:19 63 °F 45.7 °F 30 in SO 4.3 mph 5 mph 53% 0 in
00:24 63 °F 45.7 °F 30 in SO 3.5 mph 4 mph 53% 0 in
00:29 63 °F 45.5 °F 30 in SO 2.9 mph 3.6 mph 53% 0 in
00:34 62.8 °F 45.3 °F 30 in SO 1.2 mph 4.6 mph 53% 0 in
00:39 62.8 °F 45.7 °F 30 in Calm   10.7 mph 53.4% 0 in
00:44 63.1 °F 45.7 °F 30 in OSO 2.3 mph 11 mph 53% 0 in
00:49 63.1 °F 45.5 °F 30 in OSO 4 mph 8.1 mph 52.6% 0 in
00:54 63 °F 45.7 °F 30 in SSO 4 mph 8 mph 53% 0 in
00:59 62.8 °F 45.5 °F 30 in Sur 4 mph 7 mph 53.3% 0 in
01:04 62.4 °F 45.5 °F 30 in SSE 3.4 mph 5 mph 54% 0 in
01:09 62.1 °F 45.5 °F 30 in SE 2.9 mph 5 mph 54.6% 0 in
01:14 61.7 °F 45.3 °F 30 in SE 2.4 mph 5 mph 55% 0 in
01:19 61.3 °F 45.3 °F 30 in SE 2 mph 3 mph 55.6% 0 in
01:24 61.3 °F 45.5 °F 30 in SO 0.8 mph 4.6 mph 55.7% 0 in
01:29 61.9 °F 45.5 °F 30 in Calm   5 mph 55% 0 in
01:34 61.9 °F 45.5 °F 30 in ONO 1.4 mph 6.9 mph 55% 0 in
01:39 61.9 °F 45.5 °F 30 in ONO 2.4 mph 7 mph 55% 0 in
01:44 61.5 °F 45.5 °F 30 in NO 2.4 mph 7 mph 55.7% 0 in
01:49 60.6 °F 45.5 °F 30 in ESE 2.4 mph 6 mph 57.4% 0 in
01:54 59.7 °F 45.3 °F 30 in ESE 2.8 mph 6 mph 58.9% 0 in
01:59 59.4 °F 45.5 °F 30 in ENE 3.1 mph 5 mph 60% 0 in
02:04 59.4 °F 45.5 °F 30 in NO 2.4 mph 5 mph 60% 0 in
02:09 59.4 °F 45.5 °F 30 in NO 2 mph 5 mph 60% 0 in
02:14 59.4 °F 45.5 °F 30 in SSE 2.5 mph 5.8 mph 60% 0 in
02:19 58.6 °F 45.5 °F 30 in SSE 2.9 mph 6 mph 61.3% 0 in
02:24 57.9 °F 45.3 °F 30 in SE 3 mph 5 mph 62.9% 0 in
02:29 58.1 °F 45.5 °F 30 in Sur 3.1 mph 5 mph 62.7% 0 in
02:34 58.6 °F 45.5 °F 30 in SE 3 mph 5 mph 61.9% 0 in
02:39 58.8 °F 45.3 °F 30 in ESE 2.9 mph 4.6 mph 61% 0 in
02:44 58.3 °F 45.3 °F 30 in ESE 2.6 mph 9.7 mph 62.2% 0 in
02:49 57 °F 45.1 °F 30 in SE 2.4 mph 10 mph 64.6% 0 in
02:54 56.5 °F 45.3 °F 30 in SSO 3.1 mph 6 mph 66% 0 in
02:59 56.7 °F 45.3 °F 30 in SO 3.6 mph 5 mph 66% 0 in
03:04 56.7 °F 45.3 °F 30 in SSE 2.9 mph 5 mph 66% 0 in
03:09 56.7 °F 45.3 °F 30 in SO 2.4 mph 5 mph 66% 0 in
03:14 56.7 °F 45.5 °F 30 in SO 2.7 mph 5.2 mph 66% 0 in
03:19 57 °F 45.5 °F 30 in OSO 2.9 mph 8.1 mph 65.6% 0 in
03:24 57.4 °F 45.7 °F 30 in Oeste 3.3 mph 8 mph 64.8% 0 in
03:29 57.4 °F 45.3 °F 30 in SSE 3.6 mph 5.9 mph 64.3% 0 in
03:34 56.8 °F 45.3 °F 30 in SSE 3.3 mph 6 mph 65.5% 0 in
03:39 56.5 °F 45.5 °F 30 in Sur 3.1 mph 6 mph 66.3% 0 in
03:44 56.5 °F 45.5 °F 30 in SSE 3.1 mph 6 mph 66.4% 0 in
03:49 56.1 °F 45.3 °F 30 in SE 3.1 mph 7.4 mph 67% 0 in
03:54 55.4 °F 45 °F 30 in SSE 4 mph 8.5 mph 67.7% 0 in
03:59 54.9 °F 44.8 °F 30 in SSO 4.7 mph 9 mph 69.1% 0 in
04:04 54.3 °F 44.8 °F 30 in SSO 4 mph 5.2 mph 70% 0 in
04:09 54.1 °F 44.8 °F 30 in SSE 3.6 mph 6.9 mph 70.5% 0 in
04:14 54 °F 44.8 °F 30 in SSO 3.9 mph 7 mph 71.1% 0 in
04:19 54 °F 45.1 °F 30 in SO 4 mph 5 mph 72% 0 in
04:24 54 °F 45 °F 30 in SSE 3.1 mph 5 mph 71.7% 0 in
04:29 54 °F 44.8 °F 30 in Sur 2.4 mph 5 mph 71% 0 in
04:34 54 °F 44.8 °F 30 in Sur 2.8 mph 7.4 mph 71% 0 in
04:39 54.1 °F 44.8 °F 30 in SSE 3.1 mph 8.1 mph 70.4% 0 in
04:44 54 °F 44.8 °F 30 in SSO 4.3 mph 8 mph 71% 0 in
04:49 54 °F 44.8 °F 30 in SO 5.2 mph 7.4 mph 71% 0 in
04:54 54 °F 44.8 °F 30 in SO 4.9 mph 7 mph 71% 0 in
04:59 54 °F 44.8 °F 30 in SO 4.7 mph 6 mph 71% 0 in
05:04 54 °F 44.6 °F 30 in Sur 4.3 mph 6 mph 70.7% 0 in
05:09 54 °F 44.6 °F 30 in Sur 4 mph 8.1 mph 70.7% 0 in
05:14 53.8 °F 44.6 °F 30 in Sur 4.4 mph 8.1 mph 71% 0 in
05:19 53.4 °F 44.2 °F 30 in SSO 4.7 mph 8 mph 71% 0 in
05:24 54 °F 44.6 °F 30 in OSO 4.7 mph 7 mph 70.8% 0 in
05:29 54.1 °F 44.6 °F 30 in SSO 4.7 mph 7 mph 69.9% 0 in
05:34 54.1 °F 44.2 °F 30 in SSE 4.5 mph 7 mph 69.4% 0 in
05:39 53.6 °F 44.2 °F 30 in Sur 4.3 mph 8.5 mph 70.6% 0 in
05:44 53.2 °F 44.2 °F 30 in SSO 5 mph 9 mph 71.7% 0 in
05:49 53.2 °F 44.4 °F 30 in SSO 5.4 mph 8 mph 72% 0 in
05:54 53.4 °F 44.2 °F 30 in SO 5 mph 6.9 mph 71.3% 0 in
05:59 54 °F 44.6 °F 30 in SO 4.7 mph 7 mph 70.4% 0 in
06:04 54.3 °F 44.4 °F 30 in SO 4.5 mph 7.6 mph 69% 0 in
06:09 54.7 °F 44.4 °F 30 in SO 4.3 mph 8.1 mph 68.2% 0 in
06:14 55 °F 44.2 °F 30 in SO 4.5 mph 8.1 mph 67.3% 0 in
06:19 54.9 °F 44.1 °F 30 in Sur 4.7 mph 8 mph 67% 0 in
06:24 54 °F 43.9 °F 30 in SSE 4 mph 5.9 mph 68.5% 0 in
06:29 52.9 °F 43.7 °F 30 in Sur 3.6 mph 6.9 mph 70.8% 0 in
06:34 52.3 °F 43.7 °F 30 in SSO 4 mph 7.4 mph 72.4% 0 in
06:39 52.3 °F 43.7 °F 30 in SSO 4.3 mph 8.5 mph 72.6% 0 in
06:44 52.5 °F 43.7 °F 30 in SSO 5 mph 9.2 mph 71.7% 0 in
06:49 53.1 °F 43.7 °F 30 in SSO 5.4 mph 10.4 mph 70.5% 0 in
06:54 53.4 °F 43.5 °F 30 in SSO 5.9 mph 10 mph 69.2% 0 in
06:59 53.8 °F 43.7 °F 30 in SSO 6.2 mph 10.7 mph 68.4% 0 in
07:04 54.1 °F 43.7 °F 30 in SSO 6.2 mph 11 mph 67.5% 0 in
07:09 54.3 °F 43.7 °F 30 in SO 6.2 mph 9 mph 67% 0 in
07:14 54.5 °F 43.9 °F 30 in SO 4.7 mph 6.9 mph 67% 0 in
07:19 54.3 °F 43.7 °F 30 in SO 3.6 mph 7 mph 67% 0 in
07:24 54.3 °F 43.5 °F 30 in Sur 3.2 mph 5.8 mph 67% 0 in
07:29 54.3 °F 43.5 °F 30 in SO 2.9 mph 7.4 mph 66.7% 0 in
07:34 54.3 °F 43.2 °F 30 in SO 3.7 mph 9.2 mph 66% 0 in
07:39 54.1 °F 43 °F 30 in SO 4.3 mph 9.7 mph 66% 0 in
07:44 54.1 °F 43 °F 30 in SSO 5 mph 10 mph 66% 0 in
07:49 54.1 °F 43 °F 30 in Sur 5.4 mph 8.1 mph 66% 0 in
07:54 54 °F 43 °F 30 in Sur 5.4 mph 10.7 mph 66.4% 0 in
07:59 53.8 °F 43.2 °F 30 in Sur 5.4 mph 11.8 mph 67% 0 in
08:04 53.6 °F 43 °F 30 in SSE 6.6 mph 12 mph 67% 0 in
08:09 53.6 °F 43 °F 30 in Sur 7.4 mph 12 mph 67% 0 in
08:14 53.8 °F 42.6 °F 30 in Sur 6.8 mph 11.5 mph 66.1% 0 in
08:19 53.8 °F 42.6 °F 30 in Sur 6.4 mph 12 mph 66% 0 in
08:24 53.8 °F 42.6 °F 30 in Sur 6.3 mph 11 mph 66% 0 in
08:29 54 °F 42.8 °F 30 in Sur 6.2 mph 8.1 mph 66% 0 in
08:34 54 °F 43 °F 30 in SSO 5.7 mph 8.1 mph 66% 0 in
08:39 54.1 °F 42.8 °F 30 in Sur 5.2 mph 9.2 mph 65.5% 0 in
08:44 54.3 °F 42.8 °F 30 in SSE 5.3 mph 9 mph 65% 0 in
08:49 54.3 °F 42.8 °F 30 in Sur 5.4 mph 7 mph 65% 0 in
08:54 54.3 °F 42.8 °F 30 in Sur 5 mph 7 mph 65% 0 in
08:59 54.7 °F 43 °F 30 in Sur 4.7 mph 7.4 mph 65% 0 in
09:04 54.9 °F 43.2 °F 30 in SSO 4.5 mph 8.5 mph 65% 0 in
09:09 55.2 °F 43.2 °F 30 in SSO 4.3 mph 9.2 mph 64% 0 in
09:14 55.6 °F 43.5 °F 30 in SSO 5 mph 9 mph 64% 0 in
09:19 55.8 °F 43.3 °F 30 in SSO 5.4 mph 9 mph 63.1% 0 in
09:24 55.9 °F 43.5 °F 30 in SSO 5.9 mph 10.7 mph 63% 0 in
09:29 56.1 °F 43.7 °F 30 in SSO 6.2 mph 11 mph 63% 0 in
09:34 56.1 °F 43.7 °F 30 in SSO 6.3 mph 10.7 mph 63% 0 in
09:39 56.1 °F 43.7 °F 30 in SSO 6.4 mph 11 mph 63% 0 in
09:44 56.1 °F 43.7 °F 30 in SSO 6.7 mph 10.4 mph 63% 0 in
09:49 56.3 °F 43.9 °F 30 in SSO 6.9 mph 10 mph 63% 0 in
09:54 56.7 °F 44.1 °F 30 in SSO 6.5 mph 11.5 mph 63% 0 in
09:59 56.7 °F 44.2 °F 30 in Sur 6.2 mph 12.7 mph 63% 0 in
10:04 56.8 °F 44.4 °F 30 in SSO 7.1 mph 13 mph 63% 0 in
10:09 57.2 °F 44.6 °F 30 in SSO 7.6 mph 13 mph 62.8% 0 in
10:14 57.6 °F 44.6 °F 30 in SSO 7.9 mph 13 mph 62% 0 in
10:19 57.9 °F 44.8 °F 30 in SSO 8.1 mph 13.8 mph 61.4% 0 in
10:24 58.3 °F 45 °F 30 in SSO 8.1 mph 14 mph 61% 0 in
10:29 58.6 °F 45.1 °F 30 in SSO 8.1 mph 12 mph 60.9% 0 in
10:34 58.8 °F 45 °F 30 in SSO 7.4 mph 13.8 mph 60% 0 in
10:39 59 °F 45.1 °F 30 in SSO 6.9 mph 14 mph 60% 0 in
10:44 59.4 °F 45.5 °F 30 in SSO 7.3 mph 14 mph 60% 0 in
10:49 59.4 °F 45.5 °F 30 in SSO 7.6 mph 14 mph 60% 0 in
10:54 59.7 °F 45.9 °F 30 in SSO 7.9 mph 14.5 mph 60% 0 in
10:59 60.1 °F 45.9 °F 30 in SSO 8.1 mph 15 mph 59.5% 0 in
11:04 60.3 °F 45.9 °F 30 in SSO 8.3 mph 15 mph 59% 0 in
11:09 60.6 °F 45.9 °F 30 in SSO 8.5 mph 15 mph 58.1% 0 in
11:14 61 °F 45.7 °F 30 in SSO 8.6 mph 15.2 mph 57.2% 0 in
11:19 61.2 °F 45.9 °F 30 in SSO 8.7 mph 15 mph 57.1% 0 in
11:24 61.3 °F 46 °F 30 in SSO 9.3 mph 15 mph 57% 0 in
11:29 61.5 °F 46.2 °F 30 in SSO 9.7 mph 13.8 mph 57% 0 in
11:34 61.9 °F 46.2 °F 30 in SSO 8.8 mph 14 mph 56.3% 0 in
11:39 62.1 °F 46.2 °F 30 in SSO 8.1 mph 13 mph 56% 0 in
11:44 62.4 °F 46.6 °F 30 in SSO 8.3 mph 13 mph 56% 0 in
11:49 63 °F 46.8 °F 30 in SO 8.5 mph 13 mph 55.6% 0 in
11:54 63.3 °F 46.8 °F 30 in SO 7.3 mph 17.3 mph 54.5% 0 in
11:59 63.9 °F 46.4 °F 30 in SO 6.4 mph 17 mph 53.1% 0 in
12:04 64.2 °F 46.6 °F 30 in OSO 7.7 mph 15 mph 52.8% 0 in
12:09 64.2 °F 46 °F 30 in OSO 8.5 mph 17.3 mph 51.8% 0 in
12:14 64.2 °F 46.2 °F 30 in Oeste 8.6 mph 17 mph 52% 0 in
12:19 64.6 °F 46.6 °F 30 in OSO 8.7 mph 15 mph 52% 0 in
12:24 64.8 °F 46.8 °F 30 in OSO 8.6 mph 15 mph 52% 0 in
12:29 64.9 °F 46.6 °F 30 in SO 8.5 mph 14 mph 51.6% 0 in
12:34 64.8 °F 46.6 °F 30 in SO 8 mph 14 mph 51.8% 0 in
12:39 64 °F 46.4 °F 30 in SSO 7.6 mph 15 mph 52.4% 0 in
12:44 64 °F 46.4 °F 30 in SSO 8.1 mph 15 mph 52.6% 0 in
12:49 64.2 °F 46.4 °F 30 in SSO 8.5 mph 15 mph 52.5% 0 in
12:54 64.2 °F 46.6 °F 30 in SO 8.3 mph 14 mph 52.9% 0 in
12:59 64.6 °F 46.9 °F 30 in SSO 8.1 mph 13.8 mph 52.5% 0 in
13:04 64.9 °F 46.9 °F 30 in SO 7 mph 14 mph 52.2% 0 in
13:09 65.5 °F 46.9 °F 30 in OSO 6.4 mph 16.3 mph 51.2% 0 in
13:14 65.8 °F 47.1 °F 30 in OSO 7.4 mph 16 mph 51% 0 in
13:19 65.8 °F 46.8 °F 30 in OSO 8.1 mph 18.5 mph 50% 0 in
13:24 65.8 °F 46.8 °F 30 in OSO 9 mph 19 mph 50% 0 in
13:29 66 °F 46.8 °F 30 in OSO 9.7 mph 17.3 mph 50% 0 in
13:34 66.2 °F 47.1 °F 30 in OSO 9.1 mph 17 mph 50% 0 in
13:39 66.4 °F 47.1 °F 30 in OSO 8.7 mph 15 mph 49.9% 0 in
13:44 66.6 °F 46.9 °F 30 in OSO 8 mph 17.3 mph 49.1% 0 in
13:49 66.6 °F 46.8 °F 30 in OSO 7.6 mph 17 mph 49% 0 in
13:54 66.6 °F 46.9 °F 30 in Oeste 7.9 mph 15 mph 49.2% 0 in
13:59 66.7 °F 46.9 °F 30 in OSO 8.1 mph 13.8 mph 49.1% 0 in
14:04 66.7 °F 46.9 °F 30 in Oeste 7.7 mph 16.1 mph 48.9% 0 in
14:09 66.6 °F 46.8 °F 30 in OSO 7.4 mph 16 mph 49% 0 in
14:14 66.6 °F 46.8 °F 30 in OSO 7.5 mph 15 mph 49% 0 in
14:19 66.7 °F 46.9 °F 30 in Oeste 7.6 mph 15 mph 49% 0 in
14:24 66.9 °F 47.1 °F 30 in Oeste 6.9 mph 12 mph 49% 0 in
14:29 66.9 °F 46.9 °F 30 in OSO 6.4 mph 12.7 mph 48.6% 0 in
14:34 66.9 °F 46.8 °F 30 in OSO 6.1 mph 13 mph 48.2% 0 in
14:39 66.9 °F 46.9 °F 30 in Oeste 5.9 mph 13.5 mph 48.7% 0 in
14:44 66.9 °F 46.6 °F 30 in Oeste 6.8 mph 17.3 mph 48% 0 in
14:49 66.9 °F 46.8 °F 30 in Oeste 7.4 mph 17 mph 48.3% 0 in
14:54 67.3 °F 46.9 °F 30 in OSO 7.8 mph 13 mph 48% 0 in
14:59 67.1 °F 46.8 °F 30 in Oeste 8.1 mph 13 mph 48.1% 0 in
15:04 66.9 °F 47.1 °F 30 in OSO 7.4 mph 11.5 mph 48.8% 0 in
15:09 67.3 °F 46.9 °F 30 in Oeste 6.9 mph 13.5 mph 48% 0 in
15:14 67.1 °F 46.6 °F 30 in Oeste 6.9 mph 14 mph 47.7% 0 in
15:19 66.9 °F 46.4 °F 30 in Oeste 6.9 mph 14 mph 47.8% 0 in
15:24 67.1 °F 46.6 °F 30 in OSO 6.5 mph 15.2 mph 47.7% 0 in
15:29 67.5 °F 46.6 °F 30 in Oeste 6.2 mph 15 mph 47.3% 0 in
15:34 67.5 °F 46.6 °F 30 in Oeste 7.6 mph 15 mph 47% 0 in
15:39 67.5 °F 46.6 °F 30 in Oeste 8.5 mph 15 mph 47% 0 in
15:44 67.5 °F 46.6 °F 30 in Oeste 7.6 mph 13 mph 47% 0 in
15:49 67.5 °F 46.6 °F 30 in Oeste 6.9 mph 13 mph 47.3% 0 in
15:54 67.3 °F 46.8 °F 30 in Oeste 7.2 mph 13 mph 47.9% 0 in
15:59 67.1 °F 46.8 °F 30 in Oeste 7.4 mph 13 mph 48% 0 in
16:04 66.9 °F 46.6 °F 30 in OSO 6.8 mph 11.2 mph 48% 0 in
16:09 67.3 °F 46.9 °F 30 in OSO 6.4 mph 12 mph 48% 0 in
16:14 67.3 °F 46.9 °F 30 in Oeste 5.8 mph 11.5 mph 48% 0 in
16:19 67.3 °F 46.9 °F 30 in Oeste 5.4 mph 12 mph 48% 0 in
16:24 67.3 °F 46.9 °F 30 in ONO 6 mph 13.8 mph 48% 0 in
16:29 67.3 °F 46.9 °F 30 in Oeste 6.4 mph 14 mph 48% 0 in
16:34 67.3 °F 46.9 °F 30 in Oeste 7 mph 12 mph 48% 0 in
16:39 67.1 °F 46.8 °F 30 in Oeste 7.4 mph 13.8 mph 48% 0 in
16:44 66.9 °F 46.6 °F 30 in Oeste 7.1 mph 14 mph 48% 0 in
16:49 66.7 °F 46.4 °F 30 in Oeste 6.9 mph 13 mph 48% 0 in
16:54 66.7 °F 46.4 °F 30 in Oeste 7.2 mph 13 mph 48% 0 in
16:59 66.7 °F 46.4 °F 30 in ONO 7.4 mph 13 mph 48% 0 in
17:04 66.7 °F 46.4 °F 30 in ONO 7.1 mph 11.8 mph 48% 0 in
17:09 66.6 °F 46.2 °F 30 in Oeste 6.9 mph 12 mph 48% 0 in
17:14 66.4 °F 46 °F 30 in Oeste 6.9 mph 12.7 mph 48% 0 in
17:19 66.2 °F 46.2 °F 30 in Oeste 6.9 mph 13 mph 48.6% 0 in
17:24 65.8 °F 46.2 °F 30 in Oeste 6.9 mph 12 mph 49% 0 in
17:29 65.7 °F 46 °F 30 in Oeste 6.9 mph 13.8 mph 49.2% 0 in
17:34 65.5 °F 46.2 °F 30 in OSO 6.9 mph 14 mph 50% 0 in
17:39 65.3 °F 46.2 °F 30 in OSO 6.9 mph 9.2 mph 50% 0 in
17:44 65.1 °F 46 °F 30 in OSO 5.9 mph 9.7 mph 50% 0 in
17:49 64.9 °F 45.9 °F 30 in OSO 5.2 mph 11.5 mph 50% 0 in
17:54 64.8 °F 45.7 °F 30 in OSO 5.8 mph 12 mph 50% 0 in
17:59 64.6 °F 45.5 °F 30 in Oeste 6.2 mph 10.7 mph 50% 0 in
18:04 64.2 °F 45.7 °F 30 in Oeste 5.7 mph 11 mph 50.7% 0 in
18:09 64 °F 45.5 °F 30 in Oeste 5.4 mph 10.4 mph 51% 0 in
18:14 63.9 °F 45.3 °F 30 in Oeste 5.9 mph 11.8 mph 51% 0 in
18:19 63.7 °F 45.3 °F 30 in Oeste 6.2 mph 12 mph 51.3% 0 in
18:24 63.3 °F 45.3 °F 30 in Oeste 6.3 mph 12.7 mph 51.9% 0 in
18:29 63.1 °F 45.1 °F 30 in Oeste 6.4 mph 13 mph 52% 0 in
18:34 63 °F 45.1 °F 30 in ONO 6.3 mph 10.4 mph 52.1% 0 in
18:39 62.8 °F 45.3 °F 30 in ONO 6.2 mph 10 mph 53% 0 in
18:44 62.4 °F 45.1 °F 30 in Oeste 5.7 mph 12.7 mph 53% 0 in
18:49 62.2 °F 45.1 °F 30 in ONO 5.4 mph 13 mph 53.3% 0 in
18:54 62.1 °F 45.1 °F 30 in Oeste 6.3 mph 12 mph 54% 0 in
18:59 62.1 °F 45.1 °F 30 in Oeste 6.9 mph 11.8 mph 54% 0 in
19:04 61.9 °F 45 °F 30 in Oeste 7.2 mph 12.7 mph 54% 0 in
19:09 61.7 °F 45 °F 30 in Oeste 7.4 mph 13 mph 54% 0 in
19:14 61.5 °F 44.8 °F 30 in ONO 7.5 mph 13 mph 54% 0 in
19:19 61.3 °F 44.6 °F 30 in ONO 7.6 mph 13 mph 54% 0 in
19:24 61.2 °F 44.4 °F 30 in ONO 7.9 mph 13 mph 54% 0 in
19:29 61 °F 44.2 °F 30 in ONO 8.1 mph 15.2 mph 54% 0 in
19:34 61 °F 44.2 °F 30 in Oeste 8.3 mph 18.5 mph 54% 0 in
19:39 60.8 °F 44.1 °F 30 in ONO 8.5 mph 19 mph 54% 0 in
19:44 60.6 °F 44.1 °F 30 in Oeste 9.5 mph 16.1 mph 54.3% 0 in
19:49 60.4 °F 44.2 °F 30 in Oeste 10.2 mph 16.1 mph 55% 0 in
19:54 60.4 °F 44.1 °F 30 in ONO 10.2 mph 16.1 mph 55% 0 in
19:59 60.3 °F 44.1 °F 30 in Oeste 10.2 mph 16 mph 55% 0 in
20:04 60.3 °F 43.9 °F 30 in ONO 8.9 mph 15 mph 55% 0 in
20:09 60.1 °F 43.9 °F 30 in Oeste 8.1 mph 15.2 mph 55% 0 in
20:14 59.9 °F 43.7 °F 30 in Oeste 7.7 mph 15 mph 55% 0 in
20:19 59.7 °F 43.5 °F 30 in OSO 7.4 mph 13 mph 55% 0 in
20:24 59.5 °F 43.3 °F 30 in OSO 6.8 mph 12 mph 55% 0 in
20:29 59.4 °F 43.2 °F 30 in OSO 6.4 mph 12 mph 55% 0 in
20:34 59.4 °F 43.2 °F 30 in OSO 6.4 mph 11.8 mph 55% 0 in
20:39 59.4 °F 43.3 °F 30 in OSO 6.4 mph 12 mph 55.2% 0 in
20:44 59.2 °F 43.5 °F 30 in OSO 6.4 mph 11 mph 56% 0 in
20:49 59.2 °F 43.5 °F 30 in OSO 6.4 mph 11.5 mph 56% 0 in
20:54 59.2 °F 43.5 °F 30 in OSO 6.1 mph 12 mph 56% 0 in
20:59 59 °F 43.3 °F 30 in SO 5.9 mph 10.4 mph 56% 0 in
21:04 58.8 °F 43.3 °F 30 in SO 6.1 mph 11.5 mph 56.3% 0 in
21:09 58.6 °F 43.5 °F 30 in SO 6.2 mph 12 mph 57% 0 in
21:14 58.5 °F 43.3 °F 30 in SO 6.3 mph 12 mph 57% 0 in
21:19 58.5 °F 43.3 °F 30 in SO 6.4 mph 11 mph 57% 0 in
21:24 58.3 °F 43.2 °F 30 in SO 6.1 mph 11.2 mph 57% 0 in
21:29 58.3 °F 43.2 °F 30 in SO 5.9 mph 12 mph 57.3% 0 in
21:34 57.9 °F 43.3 °F 30 in SO 5.9 mph 10 mph 58% 0 in
21:39 57.9 °F 43.2 °F 30 in SO 5.9 mph 10.7 mph 58% 0 in
21:44 57.7 °F 43.2 °F 30 in SO 5.9 mph 11.8 mph 58% 0 in
21:49 57.7 °F 43.2 °F 30 in SO 5.9 mph 12 mph 58.1% 0 in
21:54 57.6 °F 43.3 °F 30 in SO 6.8 mph 12 mph 59% 0 in
21:59 57.4 °F 43.2 °F 30 in SO 7.4 mph 11 mph 59% 0 in
22:04 57.4 °F 43.2 °F 30 in SO 6.5 mph 9.2 mph 59% 0 in
22:09 57 °F 43.2 °F 30 in SO 5.9 mph 9.7 mph 59.5% 0 in
22:14 57 °F 43.3 °F 30 in SO 5.9 mph 10 mph 60% 0 in
22:19 57 °F 43.2 °F 30 in SSO 5.9 mph 10 mph 59.8% 0 in
22:24 57 °F 43.3 °F 30 in SSO 5.9 mph 9 mph 60% 0 in
22:29 57 °F 43.3 °F 30 in SSO 5.9 mph 8 mph 60% 0 in
22:34 56.8 °F 43.2 °F 30 in SSO 5.2 mph 9.2 mph 60% 0 in
22:39 56.8 °F 43.2 °F 30 in SSO 4.7 mph 9.2 mph 60.2% 0 in
22:44 56.7 °F 43.3 °F 30 in SSO 5.1 mph 9.7 mph 61% 0 in
22:49 56.3 °F 43.2 °F 30 in SO 5.4 mph 10 mph 61.1% 0 in
22:54 56.1 °F 43.3 °F 30 in SSO 5.4 mph 9.7 mph 61.9% 0 in
22:59 56.1 °F 43.3 °F 30 in SSO 5.4 mph 11.5 mph 62% 0 in
23:04 56.1 °F 43.3 °F 30 in SSO 6 mph 12.7 mph 62% 0 in
23:09 55.9 °F 43.2 °F 30 in SSO 6.4 mph 13.8 mph 62% 0 in
23:14 55.9 °F 43.2 °F 30 in SSO 6.4 mph 14 mph 62% 0 in
23:19 55.8 °F 43.3 °F 30 in SSO 6.4 mph 12 mph 62.7% 0 in
23:24 55.8 °F 43.3 °F 30 in SSO 7 mph 12 mph 63% 0 in
23:29 55.8 °F 43.3 °F 30 in SSO 7.4 mph 12 mph 63% 0 in
23:34 55.8 °F 43.2 °F 30 in SO 6.8 mph 10 mph 63% 0 in
23:39 55.6 °F 43.2 °F 30 in SO 6.4 mph 9.7 mph 63% 0 in
23:44 55.4 °F 43 °F 30 in SSO 5.7 mph 10 mph 63% 0 in
23:49 55.2 °F 42.8 °F 30 in SSO 5.2 mph 8.5 mph 63% 0 in
23:54 55.2 °F 42.8 °F 30 in SSO 5.6 mph 9.7 mph 63% 0 in
23:59 55.2 °F 42.8 °F 30 in SSO 5.9 mph 10.4 mph 63% 0 in
Murcia-Puente Tocinos, Espa?a
Compliments of Weather Underground - 3 mb

La estación de MeteoMurcia.com, publica sus datos en los siguientes proyectos:

Weather Underground PWS IMURCIAP2 Meteoclimatic www.awekas.at

W3Counter
Web Analytics